Time;durP1;ratioP1;P1;durP2;ratioP2;P2;SDS_P1;SDS_P2;PMS_P1;PMS_P2;Temp;Humidity;BMP_temperature;BMP_pressure;BME280_temperature;BME280_humidity;BME280_pressure;Samples;Min_cycle;Max_cycle;Signal;HPM_P1;HPM_P2
2021/11/30 04:03:06;;;;;;;19.88;9.77;;;2.10;95.40;;;;;;5111354;27;20291;-48
2021/11/30 04:05:31;;;;;;;36.05;16.33;;;2.10;95.50;;;;;;5110788;28;20069;-50
2021/11/30 04:07:57;;;;;;;12.45;6.85;;;2.10;95.60;;;;;;5110836;28;20024;-52
2021/11/30 04:10:23;;;;;;;31.02;13.27;;;2.20;95.60;;;;;;5110861;28;20400;-49
2021/11/30 04:12:50;;;;;;;26.63;10.52;;;2.20;95.60;;;;;;5111134;28;20053;-47
2021/11/30 04:15:16;;;;;;;15.52;9.32;;;2.30;95.60;;;;;;5110623;28;20019;-48
2021/11/30 04:17:41;;;;;;;19.80;10.18;;;2.30;95.60;;;;;;5110678;28;20020;-48
2021/11/30 04:20:09;;;;;;;20.13;12.18;;;2.40;95.60;;;;;;5110666;28;20039;-47
2021/11/30 04:22:35;;;;;;;18.10;9.60;;;2.40;95.60;;;;;;5110371;28;20076;-49
2021/11/30 04:25:00;;;;;;;20.10;11.35;;;2.50;95.70;;;;;;5111171;28;20099;-47
2021/11/30 04:27:26;;;;;;;15.18;9.48;;;2.60;95.70;;;;;;5110559;28;20027;-50
2021/11/30 04:29:51;;;;;;;19.30;9.43;;;2.60;95.80;;;;;;5110147;28;20052;-50
2021/11/30 04:32:17;;;;;;;15.63;10.48;;;2.60;95.80;;;;;;5110107;28;20361;-51
2021/11/30 04:34:43;;;;;;;17.55;10.85;;;2.70;95.90;;;;;;5110571;28;20032;-46
2021/11/30 04:37:08;;;;;;;18.73;10.82;;;2.80;95.90;;;;;;5110127;28;20024;-52
2021/11/30 04:39:34;;;;;;;23.88;12.40;;;2.90;95.90;;;;;;5110704;28;20024;-51
2021/11/30 04:42:01;;;;;;;25.13;14.75;;;3.00;95.90;;;;;;5108954;28;20468;-50
2021/11/30 04:44:29;;;;;;;21.27;12.98;;;3.10;95.90;;;;;;5108691;28;20391;-50
2021/11/30 04:46:58;;;;;;;19.73;11.15;;;3.20;95.90;;;;;;5110212;28;20140;-50
2021/11/30 04:49:39;;;;;;;16.13;11.18;;;3.30;95.80;;;;;;5110106;28;20484;-49
2021/11/30 04:52:08;;;;;;;16.90;12.43;;;3.30;95.90;;;;;;5109802;28;20042;-50
2021/11/30 04:54:34;;;;;;;23.45;14.13;;;3.30;95.90;;;;;;5109744;28;20051;-51
2021/11/30 04:56:59;;;;;;;20.05;12.30;;;3.40;95.90;;;;;;5108434;28;20055;-50
2021/11/30 04:59:25;;;;;;;32.45;15.85;;;3.50;96.00;;;;;;5109595;28;20063;-49
2021/11/30 05:01:51;;;;;;;23.52;15.70;;;3.50;96.00;;;;;;5109658;28;20051;-50
2021/11/30 05:04:17;;;;;;;25.98;18.50;;;3.60;96.10;;;;;;5109463;28;20027;-50
2021/11/30 05:06:46;;;;;;;26.80;17.95;;;3.60;96.10;;;;;;5109655;28;20020;-48
2021/11/30 05:09:12;;;;;;;21.50;14.18;;;3.70;96.20;;;;;;5109597;28;20026;-50
2021/11/30 05:11:38;;;;;;;23.90;15.05;;;3.70;96.10;;;;;;5109321;28;20056;-48
2021/11/30 05:14:05;;;;;;;26.42;16.27;;;3.80;96.20;;;;;;5097927;28;20039;-48
2021/11/30 05:16:31;;;;;;;31.50;18.50;;;3.80;96.30;;;;;;5095651;28;20384;-50
2021/11/30 05:18:57;;;;;;;20.35;13.02;;;3.80;96.30;;;;;;5095595;28;20043;-49
2021/11/30 05:21:22;;;;;;;25.88;17.55;;;3.80;96.30;;;;;;5095627;28;20054;-53
2021/11/30 05:23:49;;;;;;;21.08;14.48;;;3.80;96.40;;;;;;5094281;28;20016;-50
2021/11/30 05:26:15;;;;;;;24.52;16.38;;;3.90;96.40;;;;;;5095779;28;20357;-51
2021/11/30 05:28:42;;;;;;;24.30;15.75;;;3.90;96.40;;;;;;5095634;28;20020;-49
2021/11/30 05:31:10;;;;;;;25.95;16.33;;;3.90;96.30;;;;;;5095481;28;20036;-49
2021/11/30 05:33:36;;;;;;;21.95;12.60;;;3.90;96.40;;;;;;5094132;28;20028;-52
2021/11/30 05:36:03;;;;;;;24.00;14.93;;;4.00;96.50;;;;;;5095365;28;20154;-48
2021/11/30 05:38:30;;;;;;;21.30;14.63;;;3.90;96.50;;;;;;5095510;28;20020;-52
2021/11/30 05:40:55;;;;;;;23.15;14.05;;;4.00;96.50;;;;;;5095208;28;20028;-49
2021/11/30 05:43:21;;;;;;;25.45;14.60;;;4.10;96.60;;;;;;5095170;28;20383;-52
2021/11/30 05:45:47;;;;;;;25.25;17.50;;;4.10;96.70;;;;;;5095210;28;20355;-54
2021/11/30 05:48:13;;;;;;;25.75;16.73;;;4.10;96.70;;;;;;5095333;28;20112;-51
2021/11/30 05:50:39;;;;;;;30.73;20.00;;;4.10;96.70;;;;;;5095441;28;20078;-51
2021/11/30 05:53:05;;;;;;;21.63;15.73;;;4.20;96.70;;;;;;5095001;28;20030;-50
2021/11/30 05:55:31;;;;;;;29.08;17.58;;;4.20;96.70;;;;;;5095131;28;20513;-50
2021/11/30 05:57:58;;;;;;;15.60;10.50;;;4.20;96.60;;;;;;5094957;28;20445;-47
2021/11/30 06:00:24;;;;;;;28.55;17.80;;;4.30;96.70;;;;;;5095398;28;20047;-47
2021/11/30 06:05:23;;;;;;;19.10;12.88;;;4.30;96.70;;;;;;5095293;28;20089;-49
2021/11/30 06:07:49;;;;;;;23.55;12.57;;;4.30;96.60;;;;;;5094582;28;20051;-49
2021/11/30 06:10:15;;;;;;;17.00;12.95;;;4.30;96.60;;;;;;5094613;28;20024;-50
2021/11/30 06:12:41;;;;;;;22.65;14.40;;;4.30;96.60;;;;;;5094698;28;20118;-51
2021/11/30 06:15:07;;;;;;;24.55;14.43;;;4.40;96.70;;;;;;5094796;28;20028;-51
2021/11/30 06:17:33;;;;;;;15.70;9.85;;;4.40;96.70;;;;;;5094459;28;20028;-52
2021/11/30 06:19:59;;;;;;;30.45;16.92;;;4.40;96.70;;;;;;5094267;28;20032;-50
2021/11/30 06:22:25;;;;;;;25.48;14.93;;;4.50;96.80;;;;;;5092819;28;20103;-51
2021/11/30 06:24:51;;;;;;;21.95;14.32;;;4.60;96.80;;;;;;5093306;28;20091;-48
2021/11/30 06:27:17;;;;;;;16.20;11.57;;;4.60;96.80;;;;;;5094323;28;20073;-51
2021/11/30 06:29:43;;;;;;;19.20;11.98;;;4.60;96.80;;;;;;5094129;28;20028;-53
2021/11/30 06:32:10;;;;;;;19.48;12.93;;;4.60;96.90;;;;;;5094375;28;20058;-51
2021/11/30 06:34:37;;;;;;;20.38;12.02;;;4.70;97.00;;;;;;5094310;28;20052;-49
2021/11/30 06:37:07;;;;;;;28.02;16.10;;;4.70;97.00;;;;;;5094831;28;20046;-50
2021/11/30 06:39:33;;;;;;;21.55;13.30;;;4.70;97.00;;;;;;5094445;28;20085;-49
2021/11/30 06:41:59;;;;;;;15.90;11.55;;;4.80;97.00;;;;;;5092389;28;20458;-51
2021/11/30 06:44:25;;;;;;;23.38;14.85;;;4.80;97.10;;;;;;5094196;28;20028;-52
2021/11/30 06:46:50;;;;;;;21.63;13.60;;;4.80;97.10;;;;;;5094522;28;20055;-48
2021/11/30 06:49:16;;;;;;;26.67;18.33;;;4.90;97.10;;;;;;5093903;28;20028;-48
2021/11/30 06:51:43;;;;;;;22.95;12.55;;;4.90;97.10;;;;;;5092287;28;20422;-49
2021/11/30 06:54:08;;;;;;;28.40;15.90;;;5.00;97.20;;;;;;5094138;28;20038;-51
2021/11/30 06:56:34;;;;;;;26.85;14.98;;;5.00;97.20;;;;;;5093703;28;20095;-49
2021/11/30 06:58:59;;;;;;;23.33;14.55;;;5.10;97.20;;;;;;5094022;28;20028;-49
2021/11/30 07:01:28;;;;;;;30.92;18.95;;;5.10;97.20;;;;;;5093409;28;20042;-49
2021/11/30 07:03:54;;;;;;;22.70;14.32;;;5.20;97.20;;;;;;5092202;28;20491;-51
2021/11/30 07:06:34;;;;;;;24.35;16.60;;;5.30;97.20;;;;;;5093189;28;20032;-52
2021/11/30 07:09:15;;;;;;;27.17;17.30;;;5.30;97.20;;;;;;5093952;28;20075;-56
2021/11/30 07:14:07;;;;;;;28.45;15.63;;;5.40;97.20;;;;;;5093788;28;20028;-51
2021/11/30 07:16:33;;;;;;;33.20;19.02;;;5.50;97.20;;;;;;5094240;28;20051;-51
2021/11/30 07:18:59;;;;;;;33.03;17.58;;;5.50;97.20;;;;;;5092397;28;20103;-50
2021/11/30 07:21:26;;;;;;;38.38;20.73;;;5.60;97.30;;;;;;5091910;28;20050;-48
2021/11/30 07:23:52;;;;;;;25.88;16.08;;;5.70;97.30;;;;;;5091904;28;20038;-48
2021/11/30 07:26:18;;;;;;;39.08;21.00;;;5.80;97.30;;;;;;5093127;28;20020;-50
2021/11/30 07:28:43;;;;;;;32.90;19.95;;;5.80;97.40;;;;;;5093214;28;20065;-54
2021/11/30 07:31:12;;;;;;;39.42;21.60;;;6.00;97.30;;;;;;5093323;28;20039;-49
2021/11/30 07:33:44;;;;;;;34.72;20.52;;;6.00;97.20;;;;;;5092909;28;20020;-52
2021/11/30 07:36:11;;;;;;;33.88;20.70;;;6.10;97.20;;;;;;5092796;28;20028;-50
2021/11/30 07:38:41;;;;;;;32.83;18.25;;;6.20;97.20;;;;;;5092888;28;20032;-50
2021/11/30 07:41:08;;;;;;;36.20;20.55;;;6.20;97.20;;;;;;5092909;28;20126;-51
2021/11/30 07:43:35;;;;;;;32.67;17.58;;;6.20;97.20;;;;;;5092730;28;20487;-52
2021/11/30 07:46:00;;;;;;;38.13;22.63;;;6.20;97.10;;;;;;5092864;28;20027;-51
2021/11/30 07:48:27;;;;;;;26.33;17.25;;;6.30;97.00;;;;;;5092352;28;20020;-48
2021/11/30 07:50:55;;;;;;;23.52;15.15;;;6.30;97.00;;;;;;5092682;28;20020;-50
2021/11/30 07:53:20;;;;;;;28.48;17.83;;;6.40;96.90;;;;;;5092440;28;20075;-49
2021/11/30 07:55:46;;;;;;;27.83;16.75;;;6.40;96.90;;;;;;5091327;28;20028;-48
2021/11/30 07:58:12;;;;;;;27.55;18.63;;;6.40;96.90;;;;;;5093207;28;20016;-48
2021/11/30 14:03:06;;;;;;;4.45;1.95;;;8.00;96.40;;;;;;5070542;28;20160;-39
2021/11/30 14:05:31;;;;;;;4.68;2.35;;;8.00;96.40;;;;;;5068508;28;20047;-39
2021/11/30 14:07:59;;;;;;;5.00;2.83;;;8.10;96.40;;;;;;5069539;28;20043;-38
2021/11/30 14:10:27;;;;;;;5.10;2.17;;;8.20;96.20;;;;;;5069599;28;20385;-38
2021/11/30 14:12:57;;;;;;;2.22;1.58;;;8.10;96.10;;;;;;5069858;28;20035;-38
2021/11/30 14:15:23;;;;;;;2.23;1.50;;;8.20;96.00;;;;;;5069872;28;20116;-39
2021/11/30 14:18:05;;;;;;;1.35;1.25;;;8.20;95.90;;;;;;5070705;28;20049;-41
2021/11/30 14:20:31;;;;;;;2.75;1.95;;;8.30;95.70;;;;;;5070085;28;20028;-38
2021/11/30 14:22:56;;;;;;;2.08;1.77;;;8.20;95.70;;;;;;5070414;28;20495;-39
2021/11/30 14:25:25;;;;;;;2.30;1.83;;;8.30;95.70;;;;;;5071287;28;20021;-39
2021/11/30 14:27:59;;;;;;;1.55;1.45;;;8.20;95.80;;;;;;5070610;28;20025;-39
2021/11/30 14:30:36;;;;;;;3.30;1.77;;;8.20;95.80;;;;;;5070413;28;20053;-40
2021/11/30 14:33:05;;;;;;;3.97;1.88;;;8.30;95.90;;;;;;5070052;28;20082;-39
2021/11/30 14:35:44;;;;;;;2.65;2.20;;;8.30;95.80;;;;;;5051825;28;20024;-40
2021/11/30 14:38:10;;;;;;;3.83;2.60;;;8.30;95.70;;;;;;5069613;28;20020;-38
2021/11/30 14:40:38;;;;;;;4.65;2.92;;;8.30;95.60;;;;;;5051544;28;20032;-38
2021/11/30 14:43:04;;;;;;;4.00;3.03;;;8.30;95.50;;;;;;5068020;28;20112;-39
2021/11/30 14:45:32;;;;;;;4.63;2.75;;;8.30;95.50;;;;;;5067802;28;20075;-40
2021/11/30 14:48:22;;;;;;;4.18;3.13;;;8.30;95.60;;;;;;5068634;28;20032;-40
2021/11/30 14:51:11;;;;;;;4.72;2.45;;;8.30;95.70;;;;;;5069249;28;20473;-39
2021/11/30 14:53:52;;;;;;;2.92;2.25;;;8.30;95.70;;;;;;5068611;28;20108;-39
2021/11/30 14:56:29;;;;;;;3.47;2.35;;;8.20;95.70;;;;;;5068999;28;20040;-39
2021/11/30 14:59:01;;;;;;;2.20;1.85;;;8.30;95.70;;;;;;5069051;28;20055;-39
2021/11/30 15:01:31;;;;;;;2.83;2.53;;;8.20;95.60;;;;;;5075641;28;20138;-39
2021/11/30 15:04:03;;;;;;;4.57;3.30;;;8.20;95.70;;;;;;5070197;28;20036;-40
2021/11/30 15:06:39;;;;;;;3.00;2.55;;;8.20;95.70;;;;;;5089103;28;20063;-39
2021/11/30 15:09:14;;;;;;;4.22;3.08;;;8.20;95.80;;;;;;5071293;28;20462;-40
2021/11/30 15:11:46;;;;;;;3.42;2.58;;;8.20;95.80;;;;;;5089340;28;20052;-40
2021/11/30 15:14:14;;;;;;;3.45;2.47;;;8.20;95.80;;;;;;5060298;28;20052;-39
2021/11/30 15:16:45;;;;;;;3.53;2.65;;;8.20;95.90;;;;;;5076028;28;20096;-40
2021/11/30 15:19:32;;;;;;;4.13;2.33;;;8.20;95.80;;;;;;5075319;28;20133;-39
2021/11/30 15:22:13;;;;;;;3.40;2.83;;;8.10;95.80;;;;;;5057292;28;20040;-39
2021/11/30 15:24:39;;;;;;;4.75;2.80;;;8.10;95.80;;;;;;5057070;28;20487;-40
2021/11/30 15:27:08;;;;;;;2.53;2.33;;;8.10;96.00;;;;;;5058616;28;20021;-40
2021/11/30 15:29:35;;;;;;;3.45;2.42;;;8.10;95.90;;;;;;5077912;28;20028;-39
2021/11/30 15:32:05;;;;;;;3.42;2.88;;;8.00;96.00;;;;;;5078089;28;20491;-39
2021/11/30 15:34:31;;;;;;;3.40;2.22;;;8.10;96.00;;;;;;5059016;28;20035;-40
2021/11/30 15:36:57;;;;;;;3.08;2.10;;;8.10;96.00;;;;;;5077234;28;20036;-39
2021/11/30 15:39:23;;;;;;;3.70;2.83;;;8.00;96.00;;;;;;5076541;28;20460;-39
2021/11/30 15:41:53;;;;;;;5.38;2.70;;;8.00;95.90;;;;;;5076318;28;20020;-40
2021/11/30 15:44:19;;;;;;;3.08;2.17;;;8.00;95.90;;;;;;5075639;28;20021;-39
2021/11/30 15:46:45;;;;;;;4.18;2.10;;;8.10;95.80;;;;;;5076320;28;20092;-39
2021/11/30 15:49:11;;;;;;;1.95;1.80;;;8.00;95.80;;;;;;5076040;28;20048;-39
2021/11/30 15:51:40;;;;;;;3.22;1.88;;;8.00;95.70;;;;;;5057578;28;20029;-39
2021/11/30 15:54:08;;;;;;;4.05;2.70;;;8.10;95.60;;;;;;5075247;28;20085;-38
2021/11/30 15:59:19;;;;;;;2.40;1.85;;;8.00;95.60;;;;;;5074579;28;20036;-39
2021/11/30 16:01:45;;;;;;;7.93;3.08;;;8.00;95.70;;;;;;5056413;28;20049;-39
2021/11/30 16:04:11;;;;;;;5.53;2.70;;;7.90;95.70;;;;;;5075359;28;20388;-39
2021/11/30 16:06:36;;;;;;;2.80;2.00;;;8.00;95.80;;;;;;5075123;28;20020;-39
2021/11/30 16:09:04;;;;;;;3.58;2.92;;;8.00;95.80;;;;;;5074517;28;20104;-39
2021/11/30 16:11:32;;;;;;;3.92;2.60;;;8.00;95.70;;;;;;5074319;28;20361;-39
2021/11/30 16:13:57;;;;;;;6.32;2.95;;;8.00;95.70;;;;;;5074183;28;20035;-39
2021/11/30 16:16:23;;;;;;;3.42;2.75;;;8.00;95.70;;;;;;5073926;28;20128;-39
2021/11/30 16:18:50;;;;;;;3.70;2.95;;;7.90;95.70;;;;;;5074553;28;20461;-39
2021/11/30 16:21:16;;;;;;;6.70;3.10;;;8.00;95.70;;;;;;5074266;28;20032;-40
2021/11/30 16:23:42;;;;;;;4.57;3.35;;;8.00;95.80;;;;;;5073800;28;20138;-41
2021/11/30 16:26:12;;;;;;;4.75;3.53;;;8.00;95.80;;;;;;5073358;28;20017;-39
2021/11/30 16:28:40;;;;;;;4.57;3.58;;;8.00;95.80;;;;;;5039497;28;20025;-40
2021/11/30 16:31:07;;;;;;;4.63;3.42;;;8.00;95.80;;;;;;5073825;28;20098;-40
2021/11/30 16:33:36;;;;;;;5.63;3.80;;;7.90;95.80;;;;;;5073894;28;20104;-39
2021/11/30 16:36:03;;;;;;;6.38;3.33;;;8.00;95.80;;;;;;5055885;28;20024;-39
2021/11/30 16:38:29;;;;;;;6.43;3.55;;;8.00;95.80;;;;;;5074335;28;20036;-39
2021/11/30 16:40:54;;;;;;;3.90;2.67;;;8.00;95.80;;;;;;5073564;28;20032;-39
2021/11/30 16:43:20;;;;;;;4.82;3.05;;;8.00;95.80;;;;;;5073689;28;20444;-40
2021/11/30 16:45:46;;;;;;;11.82;7.97;;;8.00;95.80;;;;;;5073862;28;20021;-39
2021/11/30 16:48:12;;;;;;;4.18;2.65;;;7.90;95.90;;;;;;5073534;28;20024;-40
2021/11/30 16:50:39;;;;;;;3.70;2.65;;;7.90;95.90;;;;;;5073812;28;20460;-39
2021/11/30 16:53:07;;;;;;;5.32;3.17;;;7.90;95.90;;;;;;5055671;28;20437;-40
2021/11/30 16:55:37;;;;;;;11.77;7.97;;;7.90;96.00;;;;;;5074043;28;20146;-40
2021/11/30 16:58:06;;;;;;;5.93;4.37;;;7.90;96.00;;;;;;5073395;28;20024;-40
2021/11/30 17:00:33;;;;;;;6.28;3.60;;;8.00;96.00;;;;;;5073742;28;20025;-41
2021/11/30 17:03:00;;;;;;;7.63;4.15;;;7.90;96.00;;;;;;5072988;28;20050;-40
2021/11/30 17:05:26;;;;;;;6.72;4.55;;;7.90;96.10;;;;;;5055551;28;20549;-40
2021/11/30 17:07:51;;;;;;;5.78;3.67;;;8.00;96.10;;;;;;5073669;28;20048;-39
2021/11/30 17:10:17;;;;;;;5.40;3.75;;;8.00;96.20;;;;;;5073240;28;20016;-40
2021/11/30 17:12:43;;;;;;;8.57;4.90;;;8.00;96.20;;;;;;5073330;28;20032;-39
2021/11/30 17:15:12;;;;;;;10.75;5.78;;;7.90;96.20;;;;;;5072925;28;20408;-38
2021/11/30 17:17:39;;;;;;;8.15;5.25;;;8.00;96.30;;;;;;5055019;28;20036;-39
2021/11/30 17:20:06;;;;;;;12.80;5.95;;;8.00;96.30;;;;;;5072829;28;20029;-39
2021/11/30 17:22:31;;;;;;;19.15;8.15;;;8.00;96.30;;;;;;5073548;28;20075;-39
2021/11/30 17:24:57;;;;;;;19.40;8.25;;;8.00;96.30;;;;;;5055339;28;20032;-39
2021/11/30 17:27:25;;;;;;;17.92;8.25;;;8.10;96.20;;;;;;5072969;28;20079;-40
2021/11/30 17:29:52;;;;;;;15.00;8.00;;;8.20;96.20;;;;;;5073040;28;20028;-39
2021/11/30 17:32:18;;;;;;;19.25;7.25;;;8.10;96.10;;;;;;5073878;28;20060;-40
2021/11/30 17:34:45;;;;;;;15.30;6.45;;;8.10;96.10;;;;;;5073566;28;20365;-39
2021/11/30 17:37:16;;;;;;;8.13;5.50;;;8.10;96.00;;;;;;5072695;28;20470;-39
2021/11/30 17:39:42;;;;;;;10.75;5.57;;;8.10;96.00;;;;;;5072672;28;20074;-39
2021/11/30 17:42:08;;;;;;;9.32;5.32;;;8.10;96.10;;;;;;5072735;28;20532;-39
2021/11/30 17:44:33;;;;;;;8.95;4.53;;;8.10;96.00;;;;;;5073178;28;20039;-39
2021/11/30 17:46:59;;;;;;;6.20;3.45;;;8.10;96.00;;;;;;5073104;28;20020;-39
2021/11/30 17:49:29;;;;;;;5.28;3.88;;;8.00;96.00;;;;;;5072825;28;20017;-39
2021/11/30 17:51:57;;;;;;;5.35;3.15;;;8.00;96.00;;;;;;5072382;28;20032;-39
2021/11/30 17:54:23;;;;;;;4.03;2.95;;;8.00;96.00;;;;;;5072080;28;20139;-39
2021/11/30 17:56:49;;;;;;;5.55;3.55;;;8.00;96.00;;;;;;5071866;28;20032;-39
2021/11/30 17:59:15;;;;;;;7.60;3.97;;;8.10;96.10;;;;;;5071887;28;20050;-39
2021/11/30 18:01:41;;;;;;;9.68;6.10;;;8.10;96.00;;;;;;5072350;28;20041;-39
2021/11/30 18:04:07;;;;;;;10.50;5.35;;;8.00;96.00;;;;;;5073174;28;20024;-40
2021/11/30 18:06:33;;;;;;;10.38;5.88;;;8.10;96.00;;;;;;5073952;28;20032;-39
2021/11/30 18:08:59;;;;;;;11.52;5.60;;;8.10;96.00;;;;;;5072912;28;20384;-39
2021/11/30 18:11:25;;;;;;;14.00;6.30;;;8.00;96.00;;;;;;5073598;28;20031;-39
2021/11/30 18:13:52;;;;;;;12.40;5.28;;;8.00;96.00;;;;;;5073702;28;20492;-40
2021/11/30 18:16:18;;;;;;;14.00;6.25;;;8.00;96.10;;;;;;5073256;28;20028;-40
2021/11/30 18:18:44;;;;;;;11.02;5.65;;;8.10;96.00;;;;;;5072914;28;20021;-40
2021/11/30 18:21:10;;;;;;;13.73;6.47;;;8.10;96.00;;;;;;5072486;28;20025;-39
2021/11/30 18:23:37;;;;;;;15.07;6.85;;;8.10;96.00;;;;;;5073040;28;20110;-40
2021/11/30 18:26:04;;;;;;;20.90;8.07;;;8.10;96.00;;;;;;5054482;28;20024;-40
2021/11/30 18:28:35;;;;;;;16.05;7.10;;;8.10;96.00;;;;;;5053591;28;20188;-39
2021/11/30 18:31:04;;;;;;;14.85;6.53;;;8.10;96.10;;;;;;5072226;28;20021;-39
2021/11/30 18:33:30;;;;;;;8.38;5.45;;;8.10;96.10;;;;;;5072622;28;20027;-40
2021/11/30 18:35:57;;;;;;;9.50;6.25;;;8.10;96.20;;;;;;5072241;28;20103;-40
2021/11/30 18:38:23;;;;;;;9.05;6.00;;;8.10;96.20;;;;;;5072341;28;20025;-39
2021/11/30 18:40:49;;;;;;;10.10;7.13;;;8.10;96.30;;;;;;5072042;28;20103;-40
2021/11/30 18:43:16;;;;;;;12.35;7.47;;;7.90;96.30;;;;;;5072017;28;20024;-39
2021/11/30 18:45:43;;;;;;;9.82;7.32;;;8.00;96.40;;;;;;5072047;28;20061;-40
2021/11/30 18:48:09;;;;;;;13.57;9.07;;;7.90;96.40;;;;;;5073055;28;20020;-39
2021/11/30 18:50:35;;;;;;;13.00;8.00;;;8.00;96.50;;;;;;5075814;28;20487;-39
2021/11/30 18:53:01;;;;;;;16.63;10.45;;;8.10;96.60;;;;;;5075453;28;20040;-40
2021/11/30 18:55:27;;;;;;;13.73;10.05;;;8.00;96.60;;;;;;5075992;28;20024;-39
2021/11/30 18:57:53;;;;;;;16.50;10.75;;;8.00;96.50;;;;;;5075665;28;20024;-39
2021/11/30 19:00:19;;;;;;;22.50;13.30;;;8.00;96.60;;;;;;5075787;28;20024;-40
2021/11/30 19:02:46;;;;;;;21.77;13.45;;;8.00;96.60;;;;;;5057657;28;20044;-39
2021/11/30 19:05:14;;;;;;;23.20;13.05;;;8.10;96.70;;;;;;5057405;28;20540;-40
2021/11/30 19:07:40;;;;;;;27.52;16.50;;;8.10;96.60;;;;;;5075569;28;20341;-39
2021/11/30 19:10:06;;;;;;;20.40;13.68;;;8.10;96.60;;;;;;5075803;28;20100;-39
2021/11/30 19:12:32;;;;;;;22.10;14.30;;;8.00;96.60;;;;;;5076400;28;20034;-40
2021/11/30 19:14:58;;;;;;;28.52;19.55;;;8.00;96.60;;;;;;5075519;28;20107;-40
2021/11/30 19:17:23;;;;;;;26.52;16.48;;;8.10;96.70;;;;;;5075368;28;20033;-40
2021/11/30 19:19:49;;;;;;;25.80;16.40;;;8.20;96.60;;;;;;5075599;28;20063;-40
2021/11/30 19:22:15;;;;;;;24.65;14.90;;;8.20;96.60;;;;;;5075324;28;20418;-40
2021/11/30 19:24:40;;;;;;;27.58;15.93;;;8.30;96.60;;;;;;5075294;28;20591;-40
2021/11/30 19:27:06;;;;;;;28.40;15.77;;;8.20;96.50;;;;;;5074884;28;20036;-40
2021/11/30 19:29:32;;;;;;;25.02;14.95;;;8.20;96.50;;;;;;5074695;28;20017;-40
2021/11/30 19:32:00;;;;;;;25.90;16.65;;;8.30;96.60;;;;;;5057131;28;20028;-40
2021/11/30 19:34:26;;;;;;;27.48;15.77;;;8.30;96.60;;;;;;5056967;28;20044;-40
2021/11/30 19:36:53;;;;;;;24.60;14.98;;;8.30;96.50;;;;;;5024746;28;20082;-41
2021/11/30 19:39:19;;;;;;;28.23;16.48;;;8.30;96.50;;;;;;5057263;28;20393;-41
2021/11/30 19:41:44;;;;;;;24.42;15.65;;;8.20;96.60;;;;;;5074928;28;20035;-40
2021/11/30 19:44:10;;;;;;;23.85;15.07;;;8.20;96.60;;;;;;5074746;28;20029;-40
2021/11/30 19:46:37;;;;;;;24.08;14.23;;;8.20;96.60;;;;;;5056459;28;20071;-40
2021/11/30 19:49:04;;;;;;;23.02;13.95;;;8.20;96.60;;;;;;5056802;28;20028;-41
2021/11/30 19:51:31;;;;;;;27.88;15.65;;;8.30;96.60;;;;;;5074945;28;20482;-40
2021/11/30 19:53:57;;;;;;;26.63;15.95;;;8.30;96.60;;;;;;5074701;28;20055;-40
2021/11/30 19:56:23;;;;;;;25.15;15.38;;;8.30;96.60;;;;;;5074608;28;20028;-40
2021/11/30 19:58:51;;;;;;;30.38;15.95;;;8.30;96.60;;;;;;5056487;28;20396;-40
2021/11/30 20:06:45;;;;;;;28.73;16.25;;;8.40;96.70;;;;;;5074594;28;20067;-39
2021/11/30 20:09:10;;;;;;;33.25;20.90;;;8.40;96.70;;;;;;5074511;28;20436;-39
2021/11/30 20:11:38;;;;;;;36.72;18.58;;;8.50;96.80;;;;;;5074587;28;20032;-40
2021/11/30 20:14:04;;;;;;;43.90;19.50;;;8.50;96.80;;;;;;5073990;28;20028;-40
2021/11/30 20:16:30;;;;;;;46.58;23.10;;;8.60;97.00;;;;;;5074438;28;20055;-40
2021/11/30 20:18:56;;;;;;;42.25;20.98;;;8.60;97.00;;;;;;5073901;28;20040;-39
2021/11/30 20:21:22;;;;;;;37.10;21.10;;;8.60;97.00;;;;;;5073798;28;20024;-39
2021/11/30 20:23:48;;;;;;;46.53;22.70;;;8.70;97.00;;;;;;5073856;28;20025;-39
2021/11/30 20:26:14;;;;;;;51.42;24.50;;;8.80;97.10;;;;;;5074099;28;20104;-40
2021/11/30 20:28:40;;;;;;;41.80;22.80;;;8.80;97.10;;;;;;5074721;28;20456;-38
2021/11/30 20:31:06;;;;;;;48.10;25.30;;;8.80;97.10;;;;;;5073722;28;20031;-39
2021/11/30 20:33:33;;;;;;;44.13;22.75;;;8.80;97.00;;;;;;5073956;28;20103;-40
2021/11/30 20:41:08;;;;;;;45.55;23.95;;;8.80;97.10;;;;;;5073851;28;20066;-40
2021/11/30 20:43:39;;;;;;;46.80;26.13;;;8.90;97.00;;;;;;5073771;28;20421;-40
2021/11/30 20:46:05;;;;;;;46.28;24.65;;;8.90;97.00;;;;;;5073487;28;20115;-39
2021/11/30 20:48:31;;;;;;;43.17;22.73;;;8.90;97.00;;;;;;5073162;28;20379;-40
2021/11/30 20:50:58;;;;;;;42.42;21.88;;;9.00;96.90;;;;;;5072768;28;20099;-39
2021/11/30 20:53:25;;;;;;;43.17;23.13;;;9.00;96.90;;;;;;5072987;28;20021;-40
2021/11/30 20:55:51;;;;;;;40.53;23.38;;;9.00;96.90;;;;;;5055118;28;20448;-39
2021/11/30 20:58:18;;;;;;;37.22;21.30;;;8.90;96.90;;;;;;5073308;28;20025;-39
2021/11/30 21:00:44;;;;;;;43.60;24.15;;;9.00;96.90;;;;;;5073298;28;20021;-39
2021/11/30 21:03:10;;;;;;;36.25;17.65;;;9.00;96.80;;;;;;5072743;28;20055;-39
2021/11/30 21:05:37;;;;;;;40.97;22.02;;;9.00;96.70;;;;;;5072918;28;20490;-39
2021/11/30 21:08:07;;;;;;;34.75;20.20;;;9.00;96.70;;;;;;5072894;28;20448;-39
2021/11/30 21:10:35;;;;;;;43.65;24.13;;;9.00;96.70;;;;;;5072490;28;20033;-39
2021/11/30 21:13:01;;;;;;;49.30;27.73;;;9.10;96.80;;;;;;5073168;28;20342;-39
2021/11/30 21:15:29;;;;;;;45.15;26.45;;;9.10;96.80;;;;;;5072750;28;20028;-39
2021/11/30 21:17:57;;;;;;;38.50;21.45;;;9.00;96.90;;;;;;5072540;28;20116;-39
2021/11/30 21:20:24;;;;;;;58.85;28.98;;;9.00;96.90;;;;;;5072926;28;20025;-40
2021/11/30 21:22:53;;;;;;;53.53;30.67;;;9.00;97.00;;;;;;5072101;28;20024;-39
2021/11/30 21:25:24;;;;;;;58.50;30.48;;;9.10;97.00;;;;;;5072365;28;20029;-39
2021/11/30 21:27:50;;;;;;;;;;;9.10;97.00;;;;;;5073056;28;20047;-39
2021/11/30 21:30:18;;;;;;;45.78;25.20;;;9.00;97.00;;;;;;5054848;28;19904;-39
2021/11/30 21:32:48;;;;;;;60.30;30.23;;;9.00;97.10;;;;;;5054618;28;20035;-39
2021/11/30 21:35:15;;;;;;;47.78;26.42;;;9.00;97.10;;;;;;5072593;28;20096;-39
2021/11/30 21:37:41;;;;;;;51.90;30.60;;;9.00;97.20;;;;;;5072381;28;20036;-40
2021/11/30 21:40:08;;;;;;;54.72;30.30;;;9.00;97.20;;;;;;5054242;28;20037;-39
2021/11/30 21:42:39;;;;;;;53.75;28.05;;;9.00;97.30;;;;;;5074768;28;20437;-48
2021/11/30 21:45:05;;;;;;;;;;;9.00;97.30;;;;;;5073275;28;20508;-48
2021/11/30 21:47:31;;;;;;;39.25;22.95;;;8.90;97.40;;;;;;5072147;28;19943;-49
2021/11/30 21:49:57;;;;;;;35.75;22.92;;;8.90;97.40;;;;;;5053929;28;20052;-47
2021/11/30 21:52:22;;;;;;;46.28;26.55;;;9.00;97.40;;;;;;5072039;28;20028;-49
2021/11/30 21:54:48;;;;;;;56.92;31.15;;;9.00;97.30;;;;;;5072187;28;20108;-50
2021/11/30 21:57:14;;;;;;;38.53;24.77;;;9.00;97.30;;;;;;5073699;28;20449;-49
2021/11/30 21:59:40;;;;;;;49.75;26.48;;;9.00;97.20;;;;;;5071870;28;20038;-48
2021/11/30 22:02:06;;;;;;;51.45;25.05;;;9.00;97.10;;;;;;5071584;28;20135;-49
2021/11/30 22:04:32;;;;;;;50.95;29.52;;;9.00;97.10;;;;;;5072023;28;20078;-50
2021/11/30 22:06:58;;;;;;;53.08;27.70;;;9.10;96.90;;;;;;5054672;28;20025;-52
2021/11/30 22:09:23;;;;;;;45.50;24.83;;;9.00;96.80;;;;;;5072127;28;20483;-51
2021/11/30 22:11:51;;;;;;;57.22;28.17;;;9.10;96.70;;;;;;5072350;28;20033;-52
2021/11/30 22:14:17;;;;;;;42.90;27.63;;;9.10;96.50;;;;;;5071744;28;20400;-51
2021/11/30 22:16:45;;;;;;;43.97;27.48;;;9.10;96.40;;;;;;5071864;28;20036;-49
2021/11/30 22:19:11;;;;;;;48.95;27.67;;;9.10;96.20;;;;;;5071845;28;20021;-51
2021/11/30 22:21:36;;;;;;;40.65;22.98;;;9.10;96.10;;;;;;5053661;28;20036;-48
2021/11/30 22:24:03;;;;;;;43.85;23.85;;;9.10;96.00;;;;;;5056536;28;20025;-48
2021/11/30 22:26:29;;;;;;;44.28;24.75;;;9.20;96.10;;;;;;5076228;28;20099;-49
2021/11/30 22:28:56;;;;;;;38.88;25.70;;;9.20;96.00;;;;;;5076341;28;20027;-48
2021/11/30 22:31:22;;;;;;;45.88;23.90;;;9.20;95.90;;;;;;5075960;28;20469;-48
2021/11/30 22:33:47;;;;;;;43.17;24.02;;;9.20;95.90;;;;;;5075542;28;20035;-52
2021/11/30 22:36:13;;;;;;;43.75;25.42;;;9.20;95.90;;;;;;5076007;28;20112;-49
2021/11/30 22:38:39;;;;;;;36.72;20.65;;;9.20;96.00;;;;;;5075924;28;20103;-48
2021/11/30 22:41:05;;;;;;;49.05;26.85;;;9.20;96.10;;;;;;5075589;28;20074;-48
2021/11/30 22:43:30;;;;;;;45.35;22.80;;;9.20;96.10;;;;;;5076066;28;20461;-48
2021/11/30 22:46:00;;;;;;;40.13;21.67;;;9.20;96.00;;;;;;5075506;28;20445;-52
2021/11/30 22:48:27;;;;;;;31.98;19.17;;;9.20;96.10;;;;;;5075675;28;20112;-49
2021/11/30 22:50:54;;;;;;;39.15;23.67;;;9.20;96.10;;;;;;5057415;28;20034;-49
2021/11/30 22:53:20;;;;;;;42.70;23.88;;;9.30;96.20;;;;;;5075548;28;20510;-48
2021/11/30 22:55:46;;;;;;;51.53;25.35;;;9.20;96.20;;;;;;5075190;28;20020;-50
2021/11/30 22:58:12;;;;;;;31.30;16.48;;;9.30;96.20;;;;;;5075425;28;20031;-49
